createdAt,value
2019-03-08T00:00:36.732Z,1.57
2019-03-08T00:03:03.607Z,2.17
2019-03-08T00:05:29.999Z,2.17
2019-03-08T00:07:56.620Z,2.23
2019-03-08T00:10:23.116Z,2.10
2019-03-08T00:12:49.659Z,2.37
2019-03-08T00:15:16.357Z,1.80
2019-03-08T00:17:42.871Z,2.00
2019-03-08T00:20:09.796Z,2.37
2019-03-08T00:22:36.379Z,2.00
2019-03-08T00:25:09.836Z,1.90
2019-03-08T00:27:36.320Z,1.97
2019-03-08T00:30:06.999Z,2.23
2019-03-08T00:32:33.483Z,2.43
2019-03-08T00:35:00.328Z,2.10
2019-03-08T00:37:26.832Z,2.20
2019-03-08T00:39:53.444Z,2.20
2019-03-08T00:42:19.944Z,1.90
2019-03-08T00:44:46.488Z,1.73
2019-03-08T00:47:12.994Z,2.43
2019-03-08T00:49:39.560Z,2.73
2019-03-08T00:52:06.243Z,2.00
2019-03-08T00:54:32.671Z,2.00
2019-03-08T00:56:59.159Z,2.20
2019-03-08T00:59:25.788Z,2.10
2019-03-08T01:01:52.176Z,2.40
2019-03-08T01:04:18.719Z,3.03
2019-03-08T01:06:45.205Z,2.10
2019-03-08T01:09:11.835Z,2.20
2019-03-08T01:11:38.373Z,2.10
2019-03-08T01:14:05.071Z,2.10
2019-03-08T01:16:31.724Z,2.50
2019-03-08T01:18:58.103Z,2.00
2019-03-08T01:21:24.883Z,2.67
2019-03-08T01:23:51.480Z,2.13
2019-03-08T01:26:18.024Z,2.07
2019-03-08T01:28:44.807Z,2.13
2019-03-08T01:31:11.444Z,2.57
2019-03-08T01:33:38.061Z,2.50
2019-03-08T01:36:04.687Z,2.00
2019-03-08T01:38:30.970Z,2.47
2019-03-08T01:40:57.502Z,3.07
2019-03-08T01:43:23.938Z,3.00
2019-03-08T01:45:50.816Z,2.57
2019-03-08T01:48:17.455Z,2.70
2019-03-08T01:50:44.142Z,2.33
2019-03-08T01:53:10.516Z,2.90
2019-03-08T01:55:37.036Z,2.47
2019-03-08T01:58:03.667Z,2.23
2019-03-08T02:00:30.269Z,2.33
2019-03-08T02:02:57.156Z,2.57
2019-03-08T02:05:23.748Z,2.57
2019-03-08T02:07:50.555Z,2.77
2019-03-08T02:10:17.369Z,2.07
2019-03-08T02:12:43.947Z,2.80
2019-03-08T02:15:16.160Z,2.60
2019-03-08T02:17:42.931Z,2.47
2019-03-08T02:20:16.949Z,2.20
2019-03-08T02:22:43.606Z,2.90
2019-03-08T02:25:10.171Z,2.53
2019-03-08T02:27:36.783Z,2.57
2019-03-08T02:30:07.983Z,2.60
2019-03-08T02:32:34.395Z,2.40
2019-03-08T02:35:00.999Z,2.67
2019-03-08T02:37:27.377Z,2.70
2019-03-08T02:39:53.889Z,2.87
2019-03-08T02:42:20.311Z,2.87
2019-03-08T02:44:46.871Z,3.27
2019-03-08T02:47:13.271Z,2.83
2019-03-08T02:49:39.910Z,3.40
2019-03-08T02:52:06.617Z,3.27
2019-03-08T02:54:34.455Z,3.07
2019-03-08T02:57:00.956Z,3.70
2019-03-08T02:59:27.374Z,2.40
2019-03-08T03:01:53.900Z,2.10
2019-03-08T03:04:20.331Z,2.50
2019-03-08T03:06:46.735Z,2.43
2019-03-08T03:09:13.247Z,1.97
2019-03-08T03:11:39.827Z,2.27
2019-03-08T03:14:06.457Z,2.67
2019-03-08T03:16:32.828Z,2.80
2019-03-08T03:18:59.259Z,2.50
2019-03-08T03:21:25.659Z,2.50
2019-03-08T03:23:52.031Z,1.77
2019-03-08T03:26:18.959Z,1.97
2019-03-08T03:28:45.559Z,2.10
2019-03-08T03:31:11.964Z,1.60
2019-03-08T03:33:38.390Z,2.07
2019-03-08T03:36:04.912Z,2.10
2019-03-08T03:38:31.394Z,1.97
2019-03-08T03:40:57.906Z,2.33
2019-03-08T03:43:24.384Z,2.13
2019-03-08T03:45:50.917Z,2.50
2019-03-08T03:48:17.210Z,2.17
2019-03-08T03:50:43.702Z,2.43
2019-03-08T03:53:10.203Z,2.10
2019-03-08T03:55:36.600Z,2.37
2019-03-08T03:58:03.031Z,1.90
2019-03-08T04:00:29.635Z,2.47
2019-03-08T04:02:56.250Z,2.43
2019-03-08T04:05:22.748Z,2.30
2019-03-08T04:07:49.416Z,2.60
2019-03-08T04:10:17.528Z,2.63
2019-03-08T04:12:44.090Z,2.40
2019-03-08T04:15:15.827Z,2.53
2019-03-08T04:17:42.776Z,3.10
2019-03-08T04:20:18.026Z,3.10
2019-03-08T04:22:44.786Z,3.20
2019-03-08T04:25:12.697Z,3.53
2019-03-08T04:27:39.406Z,3.80
2019-03-08T04:30:12.909Z,3.57
2019-03-08T04:32:39.608Z,4.70
2019-03-08T04:35:06.203Z,5.00
2019-03-08T04:37:32.728Z,4.73
2019-03-08T04:39:59.130Z,5.50
2019-03-08T04:42:25.475Z,5.57
2019-03-08T04:44:51.855Z,5.40
2019-03-08T04:47:18.196Z,5.60
2019-03-08T04:49:45.085Z,5.37
2019-03-08T04:52:11.509Z,5.37
2019-03-08T04:54:37.913Z,5.17
2019-03-08T04:57:04.197Z,5.33
2019-03-08T04:59:30.877Z,5.90
2019-03-08T05:01:57.289Z,5.80
2019-03-08T05:04:23.722Z,5.50
2019-03-08T05:06:50.090Z,5.60
2019-03-08T05:09:16.664Z,5.60
2019-03-08T05:11:43.060Z,5.93
2019-03-08T05:14:09.744Z,6.13
2019-03-08T05:16:36.239Z,5.83
2019-03-08T05:19:02.744Z,6.10
2019-03-08T05:21:30.709Z,6.13
2019-03-08T05:23:57.461Z,6.47
2019-03-08T05:26:24.135Z,6.83
2019-03-08T05:28:50.540Z,6.50
2019-03-08T05:31:17.081Z,7.07
2019-03-08T05:33:43.399Z,6.70
2019-03-08T05:36:09.739Z,7.10
2019-03-08T05:38:36.116Z,6.80
2019-03-08T05:41:02.762Z,6.87
2019-03-08T05:43:29.325Z,6.70
2019-03-08T05:45:55.766Z,6.03
2019-03-08T05:48:22.181Z,6.47
2019-03-08T05:50:48.507Z,6.37
2019-03-08T05:53:15.084Z,6.20
2019-03-08T05:55:41.624Z,6.00
2019-03-08T05:58:08.139Z,6.47
2019-03-08T06:00:35.296Z,6.63
2019-03-08T06:03:02.614Z,6.93
2019-03-08T06:05:29.115Z,6.90
2019-03-08T06:07:55.614Z,7.40
2019-03-08T06:10:28.050Z,7.10
2019-03-08T06:12:55.540Z,7.00
2019-03-08T06:15:21.943Z,7.07
2019-03-08T06:17:48.496Z,6.00
2019-03-08T06:20:15.296Z,6.27
2019-03-08T06:22:41.868Z,5.43
2019-03-08T06:25:08.358Z,5.80
2019-03-08T06:27:34.998Z,6.03
2019-03-08T06:30:01.642Z,5.90
2019-03-08T06:32:28.247Z,5.83
2019-03-08T06:34:54.804Z,5.90
2019-03-08T06:37:21.246Z,6.53
2019-03-08T06:39:47.572Z,6.40
2019-03-08T06:42:13.850Z,6.30
2019-03-08T06:44:40.340Z,6.10
2019-03-08T06:47:06.831Z,5.70
2019-03-08T06:49:33.198Z,6.27
2019-03-08T06:52:00.933Z,6.33
2019-03-08T06:54:27.517Z,5.87
2019-03-08T06:56:54.009Z,6.40
2019-03-08T06:59:28.532Z,6.40
2019-03-08T07:01:55.022Z,6.97
2019-03-08T07:04:21.431Z,6.43
2019-03-08T07:06:47.935Z,6.67
2019-03-08T07:09:14.342Z,6.70
2019-03-08T07:11:40.816Z,7.20
2019-03-08T07:14:07.521Z,6.23
2019-03-08T07:16:34.018Z,6.77
2019-03-08T07:19:00.495Z,6.13
2019-03-08T07:21:28.982Z,7.00
2019-03-08T07:24:00.151Z,6.63
2019-03-08T07:26:31.191Z,6.77
2019-03-08T07:29:05.784Z,7.10
2019-03-08T07:31:39.909Z,6.00
2019-03-08T07:34:08.331Z,6.87
2019-03-08T07:36:39.662Z,6.97
2019-03-08T07:39:29.894Z,6.67
2019-03-08T07:41:58.315Z,5.70
2019-03-08T07:44:32.784Z,6.53
2019-03-08T07:47:01.200Z,7.30
2019-03-08T07:49:41.504Z,8.17
2019-03-08T07:52:15.830Z,6.67
2019-03-08T07:54:56.434Z,6.50
2019-03-08T07:57:41.405Z,7.00
2019-03-08T08:00:14.286Z,7.23
2019-03-08T08:03:03.611Z,6.87
2019-03-08T08:05:31.080Z,7.83
2019-03-08T08:08:02.130Z,6.60
2019-03-08T08:10:33.254Z,7.03
2019-03-08T08:13:10.211Z,8.13
2019-03-08T08:15:45.512Z,7.80
2019-03-08T08:18:30.500Z,7.80
2019-03-08T08:21:10.876Z,6.70
2019-03-08T08:23:39.321Z,6.30
2019-03-08T08:26:10.819Z,6.27
2019-03-08T08:28:56.105Z,7.40
2019-03-08T08:31:27.613Z,7.13
2019-03-08T08:33:58.638Z,6.53
2019-03-08T08:36:33.034Z,6.73
2019-03-08T08:39:17.884Z,7.13
2019-03-08T08:41:49.364Z,6.40
2019-03-08T08:44:29.985Z,6.83
2019-03-08T08:46:58.416Z,7.17
2019-03-08T08:49:38.793Z,6.80
2019-03-08T08:52:07.201Z,6.80
2019-03-08T08:54:47.774Z,6.27
2019-03-08T08:57:16.200Z,8.27
2019-03-08T08:59:44.575Z,6.83
2019-03-08T09:02:18.940Z,6.90
2019-03-08T09:04:50.282Z,7.07
2019-03-08T09:07:21.830Z,7.00
2019-03-08T09:09:53.153Z,7.67
2019-03-08T09:12:38.100Z,7.90
2019-03-08T09:15:11.327Z,6.27
2019-03-08T09:17:57.731Z,6.20
2019-03-08T09:20:42.995Z,6.10
2019-03-08T09:23:11.522Z,6.00
2019-03-08T09:25:40.025Z,5.90
2019-03-08T09:28:08.626Z,4.63
2019-03-08T09:30:39.914Z,5.20
2019-03-08T09:33:11.320Z,5.53
2019-03-08T09:35:45.652Z,5.30
2019-03-08T09:38:14.109Z,6.00
2019-03-08T09:40:59.051Z,5.47
2019-03-08T09:43:36.667Z,5.37
2019-03-08T09:46:11.471Z,5.10
2019-03-08T09:48:48.804Z,5.90
2019-03-08T09:51:21.961Z,6.47
2019-03-08T09:53:52.988Z,5.57
2019-03-08T09:56:27.511Z,5.40
2019-03-08T09:59:11.321Z,4.60
2019-03-08T10:01:39.865Z,5.77
2019-03-08T10:04:11.024Z,4.70
2019-03-08T10:06:54.861Z,5.07
2019-03-08T10:09:25.950Z,5.03
2019-03-08T10:12:00.531Z,4.10
2019-03-08T10:14:29.069Z,4.67
2019-03-08T10:16:57.841Z,4.57
2019-03-08T10:19:29.375Z,4.07
2019-03-08T10:22:00.439Z,4.53
2019-03-08T10:24:28.836Z,4.37
2019-03-08T10:27:14.493Z,4.50
2019-03-08T10:29:48.490Z,3.50
2019-03-08T10:32:19.564Z,3.50
2019-03-08T10:34:57.310Z,4.17
2019-03-08T10:37:31.730Z,4.50
2019-03-08T10:40:06.340Z,4.33
2019-03-08T10:42:51.434Z,3.97
2019-03-08T10:45:36.539Z,2.80
2019-03-08T10:48:05.171Z,2.97
2019-03-08T10:50:42.379Z,2.87
2019-03-08T10:53:19.716Z,4.80
2019-03-08T10:56:05.178Z,3.43
2019-03-08T10:58:42.336Z,3.90
2019-03-08T11:01:28.488Z,3.43
2019-03-08T11:04:05.986Z,3.60
2019-03-08T11:06:37.750Z,3.87
2019-03-08T11:09:11.670Z,4.60
2019-03-08T11:11:42.765Z,3.97
2019-03-08T11:14:17.110Z,4.60
2019-03-08T11:16:54.452Z,4.33
2019-03-08T11:19:29.020Z,5.10
2019-03-08T11:22:12.346Z,4.93
2019-03-08T11:24:40.827Z,4.80
2019-03-08T11:27:15.106Z,5.20
2019-03-08T11:30:00.458Z,4.60
2019-03-08T11:32:34.570Z,5.00
2019-03-08T11:35:05.866Z,4.50
2019-03-08T11:37:34.390Z,3.90
2019-03-08T11:40:02.948Z,4.00
2019-03-08T11:42:49.585Z,5.13
2019-03-08T11:45:29.973Z,4.20
2019-03-08T11:48:10.639Z,3.73
2019-03-08T11:50:56.196Z,4.00
2019-03-08T11:53:24.705Z,3.43
2019-03-08T11:56:08.067Z,4.57
2019-03-08T11:58:48.786Z,4.07
2019-03-08T12:01:22.855Z,4.30
2019-03-08T12:03:57.209Z,4.00
2019-03-08T12:06:25.798Z,4.13
2019-03-08T12:08:56.925Z,4.40
2019-03-08T12:11:28.339Z,4.57
2019-03-08T12:14:13.195Z,4.10
2019-03-08T12:16:41.775Z,4.07
2019-03-08T12:19:27.325Z,5.40
2019-03-08T12:21:58.680Z,4.27
2019-03-08T12:24:39.018Z,4.13
2019-03-08T12:27:10.910Z,4.60
2019-03-08T12:29:55.992Z,4.90
2019-03-08T12:32:27.291Z,4.93
2019-03-08T12:35:00.713Z,4.60
2019-03-08T12:37:34.762Z,4.27
2019-03-08T12:40:03.306Z,4.20
2019-03-08T12:42:40.777Z,4.23
2019-03-08T12:45:28.224Z,4.10
2019-03-08T12:48:13.209Z,4.27
2019-03-08T12:50:44.585Z,4.10
2019-03-08T12:53:13.182Z,4.40
2019-03-08T12:55:44.696Z,4.03
2019-03-08T12:58:19.224Z,3.70
2019-03-08T13:00:47.711Z,4.47
2019-03-08T13:03:18.937Z,4.07
2019-03-08T13:06:02.582Z,4.57
2019-03-08T13:08:42.765Z,4.70
2019-03-08T13:11:09.276Z,4.10
2019-03-08T13:13:35.710Z,3.60
2019-03-08T13:16:02.550Z,4.57
2019-03-08T13:18:29.235Z,3.90
2019-03-08T13:20:55.892Z,3.70
2019-03-08T13:23:22.555Z,3.93
2019-03-08T13:25:49.257Z,4.00
2019-03-08T13:28:15.771Z,3.80
2019-03-08T13:30:42.488Z,3.70
2019-03-08T13:33:08.957Z,3.30
2019-03-08T13:35:35.851Z,3.63
2019-03-08T13:38:02.605Z,3.10
2019-03-08T13:40:29.242Z,3.40
2019-03-08T13:42:55.855Z,3.10
2019-03-08T13:45:22.507Z,2.60
2019-03-08T13:47:49.149Z,2.10
2019-03-08T13:50:15.809Z,2.27
2019-03-08T13:52:42.722Z,2.33
2019-03-08T13:55:13.601Z,2.30
2019-03-08T13:57:40.148Z,2.67
2019-03-08T14:00:14.975Z,2.40
2019-03-08T14:02:41.543Z,2.57
2019-03-08T14:05:08.263Z,2.83
2019-03-08T14:07:35.129Z,2.37
2019-03-08T14:10:03.374Z,3.13
2019-03-08T14:12:29.932Z,2.40
2019-03-08T14:14:56.470Z,2.97
2019-03-08T14:17:23.222Z,3.03
2019-03-08T14:19:50.081Z,2.90
2019-03-08T14:22:16.840Z,2.83
2019-03-08T14:24:43.392Z,2.87
2019-03-08T14:27:10.295Z,3.37
2019-03-08T14:29:36.875Z,2.97
2019-03-08T14:32:04.074Z,3.40
2019-03-08T14:34:30.603Z,2.90
2019-03-08T14:36:57.171Z,3.30
2019-03-08T14:39:23.848Z,3.30
2019-03-08T14:41:58.812Z,2.60
2019-03-08T14:44:39.462Z,3.10
2019-03-08T14:47:08.058Z,2.93
2019-03-08T14:49:34.416Z,3.37
2019-03-08T14:52:00.978Z,2.73
2019-03-08T14:54:27.486Z,3.10
2019-03-08T14:56:53.986Z,2.60
2019-03-08T14:59:20.506Z,2.37
2019-03-08T15:01:47.019Z,3.00
2019-03-08T15:04:13.816Z,2.83
2019-03-08T15:06:40.466Z,3.13
2019-03-08T15:09:11.113Z,2.73
2019-03-08T15:11:37.708Z,3.10
2019-03-08T15:14:04.449Z,3.07
2019-03-08T15:16:31.044Z,2.60
2019-03-08T15:18:57.627Z,2.63
2019-03-08T15:21:24.190Z,3.10
2019-03-08T15:23:54.127Z,2.80
2019-03-08T15:26:19.481Z,3.17
2019-03-08T15:28:46.021Z,2.67
2019-03-08T15:31:12.503Z,2.60
2019-03-08T15:33:39.090Z,2.50
2019-03-08T15:36:05.622Z,2.77
2019-03-08T15:38:32.282Z,2.67
2019-03-08T15:40:59.276Z,2.87
2019-03-08T15:43:25.866Z,2.73
2019-03-08T15:45:52.557Z,2.97
2019-03-08T15:48:19.005Z,3.60
2019-03-08T15:50:46.749Z,4.83
2019-03-08T15:53:13.983Z,3.20
2019-03-08T15:55:41.143Z,3.00
2019-03-08T15:58:07.737Z,3.27
2019-03-08T16:00:34.587Z,3.10
2019-03-08T16:03:01.424Z,3.33
2019-03-08T16:05:30.020Z,2.90
2019-03-08T16:07:57.656Z,2.67
2019-03-08T16:10:25.551Z,2.50
2019-03-08T16:12:52.146Z,2.90
2019-03-08T16:15:19.218Z,2.90
2019-03-08T16:17:45.909Z,2.83
2019-03-08T16:20:20.226Z,2.90
2019-03-08T16:22:46.970Z,2.60
2019-03-08T16:25:15.126Z,2.93
2019-03-08T16:27:41.906Z,2.90
2019-03-08T16:30:30.244Z,3.10
2019-03-08T16:33:20.978Z,3.00
2019-03-08T16:35:54.171Z,3.27
2019-03-08T16:38:31.156Z,3.13
2019-03-08T16:41:16.452Z,2.83
2019-03-08T16:43:47.526Z,2.80
2019-03-08T16:46:16.061Z,2.87
2019-03-08T16:48:52.290Z,3.23
2019-03-08T16:51:36.072Z,2.30
2019-03-08T16:54:07.616Z,2.60
2019-03-08T16:56:52.628Z,2.73
2019-03-08T16:59:21.148Z,2.70
2019-03-08T17:02:06.379Z,2.70
2019-03-08T17:04:49.837Z,2.30
2019-03-08T17:07:30.373Z,2.43
2019-03-08T17:10:01.535Z,2.77
2019-03-08T17:12:35.743Z,2.37
2019-03-08T17:15:06.979Z,3.07
2019-03-08T17:17:41.566Z,2.80
2019-03-08T17:20:12.896Z,2.60
2019-03-08T17:22:41.508Z,2.50
2019-03-08T17:25:23.712Z,2.47
2019-03-08T17:27:58.007Z,3.10
2019-03-08T17:30:32.390Z,2.53
2019-03-08T17:33:03.999Z,2.70
2019-03-08T17:35:50.391Z,3.00
2019-03-08T17:38:21.848Z,2.53
2019-03-08T17:40:50.411Z,2.87
2019-03-08T17:43:19.255Z,2.60
2019-03-08T17:45:59.648Z,3.47
2019-03-08T17:48:28.291Z,2.93
2019-03-08T17:51:15.039Z,2.80
2019-03-08T17:53:49.545Z,2.60
2019-03-08T17:56:36.212Z,2.30
2019-03-08T17:59:20.055Z,2.67
2019-03-08T18:01:54.247Z,2.37
2019-03-08T18:04:22.877Z,2.30
2019-03-08T18:06:53.455Z,2.63
2019-03-08T18:09:24.919Z,2.97
2019-03-08T18:11:56.241Z,2.67
2019-03-08T18:14:36.735Z,3.20
2019-03-08T18:17:05.342Z,2.40
2019-03-08T18:19:50.696Z,2.63
2019-03-08T18:22:22.095Z,2.40
2019-03-08T18:24:50.994Z,2.60
2019-03-08T18:27:22.758Z,2.40
2019-03-08T18:29:51.431Z,2.20
2019-03-08T18:32:38.629Z,2.30
2019-03-08T18:35:08.251Z,2.67
2019-03-08T18:37:45.996Z,2.60
2019-03-08T18:40:31.111Z,2.70
2019-03-08T18:43:05.382Z,2.23
2019-03-08T18:45:37.123Z,2.17
2019-03-08T18:48:08.491Z,2.50
2019-03-08T18:50:37.271Z,2.77
2019-03-08T18:53:08.683Z,2.67
2019-03-08T18:55:46.264Z,2.87
2019-03-08T18:58:31.539Z,2.60
2019-03-08T19:01:09.085Z,2.17
2019-03-08T19:03:54.235Z,2.33
2019-03-08T19:06:22.892Z,2.10
2019-03-08T19:08:51.550Z,2.30
2019-03-08T19:11:36.653Z,2.10
2019-03-08T19:14:14.383Z,2.60
2019-03-08T19:16:58.136Z,2.20
2019-03-08T19:19:27.110Z,2.67
2019-03-08T19:21:58.254Z,2.40
2019-03-08T19:24:26.950Z,2.50
2019-03-08T19:27:01.181Z,2.17
2019-03-08T19:29:35.945Z,2.63
2019-03-08T19:32:13.437Z,2.50
2019-03-08T19:34:54.007Z,2.40
2019-03-08T19:37:22.845Z,2.47
2019-03-08T19:39:51.737Z,2.50
2019-03-08T19:42:30.773Z,2.80
2019-03-08T19:45:05.030Z,2.57
2019-03-08T19:47:33.758Z,2.70
2019-03-08T19:50:08.818Z,2.97
2019-03-08T19:52:37.497Z,3.10
2019-03-08T19:55:07.580Z,2.53
2019-03-08T19:57:36.147Z,3.03
2019-03-08T20:00:22.529Z,3.23
2019-03-08T20:02:51.242Z,4.13
2019-03-08T20:05:29.472Z,2.83
2019-03-08T20:07:58.159Z,3.13
2019-03-08T20:10:33.151Z,2.70
2019-03-08T20:13:01.870Z,3.43
2019-03-08T20:15:36.788Z,2.90
2019-03-08T20:18:06.339Z,3.17
2019-03-08T20:20:34.933Z,2.70
2019-03-08T20:23:20.567Z,3.30
2019-03-08T20:25:52.145Z,4.07
2019-03-08T20:28:23.844Z,3.20
2019-03-08T20:31:07.177Z,3.13
2019-03-08T20:33:38.842Z,3.13
2019-03-08T20:36:07.595Z,3.40
2019-03-08T20:38:42.834Z,3.83
2019-03-08T20:41:20.604Z,3.63
2019-03-08T20:44:01.351Z,3.53
2019-03-08T20:46:30.187Z,3.57
2019-03-08T20:48:57.113Z,3.40
2019-03-08T20:51:24.390Z,3.77
2019-03-08T20:53:51.183Z,3.73
2019-03-08T20:56:18.046Z,3.77
2019-03-08T20:58:44.997Z,4.10
2019-03-08T21:01:11.848Z,4.10
2019-03-08T21:03:38.853Z,3.67
2019-03-08T21:06:05.704Z,3.87
2019-03-08T21:08:32.566Z,3.87
2019-03-08T21:10:59.461Z,3.40
2019-03-08T21:13:26.464Z,3.77
2019-03-08T21:15:53.280Z,3.73
2019-03-08T21:18:20.203Z,4.13
2019-03-08T21:20:47.015Z,4.20
2019-03-08T21:23:13.803Z,4.47
2019-03-08T21:25:40.908Z,4.07
2019-03-08T21:28:07.708Z,4.50
2019-03-08T21:30:34.773Z,3.50
2019-03-08T21:33:01.572Z,4.20
2019-03-08T21:35:28.487Z,4.13
2019-03-08T21:37:55.376Z,3.10
2019-03-08T21:40:22.247Z,4.03
2019-03-08T21:42:49.010Z,3.80
2019-03-08T21:45:16.274Z,3.37
2019-03-08T21:47:43.235Z,4.03
2019-03-08T21:50:17.151Z,3.60
2019-03-08T21:52:44.111Z,3.97
2019-03-08T21:55:11.067Z,4.10
2019-03-08T21:57:39.342Z,3.30
2019-03-08T22:00:24.199Z,3.70
2019-03-08T22:02:50.872Z,3.37
2019-03-08T22:05:22.022Z,3.47
2019-03-08T22:07:48.863Z,3.47
2019-03-08T22:10:20.134Z,3.53
2019-03-08T22:12:47.021Z,3.70
2019-03-08T22:15:14.067Z,3.40
2019-03-08T22:17:40.605Z,3.37
2019-03-08T22:20:07.283Z,3.77
2019-03-08T22:22:34.062Z,3.63
2019-03-08T22:25:00.919Z,3.27
2019-03-08T22:27:27.651Z,3.93
2019-03-08T22:29:54.462Z,3.80
2019-03-08T22:32:21.039Z,3.70
2019-03-08T22:34:47.741Z,3.43
2019-03-08T22:37:14.467Z,3.90
2019-03-08T22:39:41.273Z,3.83
2019-03-08T22:42:07.932Z,4.00
2019-03-08T22:44:34.268Z,3.57
2019-03-08T22:47:00.936Z,4.07
2019-03-08T22:49:27.460Z,4.50
2019-03-08T22:51:54.112Z,4.30
2019-03-08T22:54:20.876Z,4.23
2019-03-08T22:56:49.722Z,4.67
2019-03-08T22:59:16.512Z,4.20
2019-03-08T23:01:50.544Z,3.87
2019-03-08T23:04:17.199Z,4.07
2019-03-08T23:06:43.990Z,3.80
2019-03-08T23:09:11.565Z,3.87
2019-03-08T23:11:38.298Z,3.90
2019-03-08T23:14:04.994Z,3.90
2019-03-08T23:16:31.758Z,3.67
2019-03-08T23:18:58.162Z,3.23
2019-03-08T23:21:24.676Z,3.90
2019-03-08T23:23:51.251Z,3.43
2019-03-08T23:26:17.776Z,3.17
2019-03-08T23:28:46.203Z,3.50
2019-03-08T23:31:17.567Z,3.80
2019-03-08T23:33:44.106Z,3.27
2019-03-08T23:36:10.622Z,3.30
2019-03-08T23:38:37.303Z,3.23
2019-03-08T23:41:04.056Z,3.27
2019-03-08T23:43:30.585Z,3.13
2019-03-08T23:45:57.202Z,3.63
2019-03-08T23:48:23.870Z,3.63
2019-03-08T23:50:50.439Z,3.37
2019-03-08T23:53:16.931Z,3.40
2019-03-08T23:55:43.399Z,4.10
2019-03-08T23:58:10.033Z,3.40
